sensor_id;sensor_type;location;lat;lon;timestamp;pressure;altitude;pressure_sealevel;temperature;humidity
39405;BME280;25121;51.090;17.038;2023-04-09T00:05:32;100860.13;;;9.16;60.91
39405;BME280;25121;51.090;17.038;2023-04-09T00:07:22;100850.00;;;9.10;60.81
39405;BME280;25121;51.090;17.038;2023-04-09T00:18:03;100850.88;;;9.00;60.89
39405;BME280;25121;51.090;17.038;2023-04-09T00:30:32;100852.31;;;8.95;61.23
39405;BME280;25121;51.090;17.038;2023-04-09T00:44:40;100862.31;;;9.02;61.49
39405;BME280;25121;51.090;17.038;2023-04-09T00:59:21;100858.81;;;8.92;61.45
39405;BME280;25121;51.090;17.038;2023-04-09T01:17:05;100846.97;;;8.85;61.68
39405;BME280;25121;51.090;17.038;2023-04-09T01:38:50;100884.50;;;8.85;61.91
39405;BME280;25121;51.090;17.038;2023-04-09T02:47:41;100913.72;;;8.49;62.79
39405;BME280;25121;51.090;17.038;2023-04-09T02:49:05;100903.59;;;8.43;62.78
39405;BME280;25121;51.090;17.038;2023-04-09T02:50:31;100915.44;;;8.50;63.01
39405;BME280;25121;51.090;17.038;2023-04-09T02:51:57;100907.13;;;8.44;63.06
39405;BME280;25121;51.090;17.038;2023-04-09T02:53:23;100916.16;;;8.52;63.11
39405;BME280;25121;51.090;17.038;2023-04-09T02:54:46;100911.06;;;8.49;63.23
39405;BME280;25121;51.090;17.038;2023-04-09T02:56:10;100908.38;;;8.49;63.17
39405;BME280;25121;51.090;17.038;2023-04-09T02:57:32;100916.69;;;8.56;63.21
39405;BME280;25121;51.090;17.038;2023-04-09T02:58:54;100910.50;;;8.55;63.28
39405;BME280;25121;51.090;17.038;2023-04-09T03:00:16;100910.78;;;8.52;63.33
39405;BME280;25121;51.090;17.038;2023-04-09T03:01:37;100904.84;;;8.58;63.25
39405;BME280;25121;51.090;17.038;2023-04-09T03:03:02;100906.28;;;8.62;63.32
39405;BME280;25121;51.090;17.038;2023-04-09T03:04:26;100913.31;;;8.63;63.38
39405;BME280;25121;51.090;17.038;2023-04-09T03:05:49;100906.09;;;8.64;63.21
39405;BME280;25121;51.090;17.038;2023-04-09T03:07:11;100903.72;;;8.61;63.34
39405;BME280;25121;51.090;17.038;2023-04-09T03:08:36;100904.44;;;8.63;63.12
39405;BME280;25121;51.090;17.038;2023-04-09T03:09:58;100904.72;;;8.60;63.33
39405;BME280;25121;51.090;17.038;2023-04-09T03:11:19;100909.50;;;8.66;63.19
39405;BME280;25121;51.090;17.038;2023-04-09T03:12:42;100884.69;;;8.54;63.15
39405;BME280;25121;51.090;17.038;2023-04-09T03:14:04;100915.00;;;8.65;63.28
39405;BME280;25121;51.090;17.038;2023-04-09T03:15:26;100897.53;;;8.60;63.09
39405;BME280;25121;51.090;17.038;2023-04-09T03:16:48;100899.19;;;8.61;63.21
39405;BME280;25121;51.090;17.038;2023-04-09T03:18:12;100899.78;;;8.65;63.25
39405;BME280;25121;51.090;17.038;2023-04-09T03:19:35;100896.69;;;8.60;63.47
39405;BME280;25121;51.090;17.038;2023-04-09T03:29:59;100893.59;;;8.45;63.36
39405;BME280;25121;51.090;17.038;2023-04-09T03:31:30;100896.81;;;8.49;63.34
39405;BME280;25121;51.090;17.038;2023-04-09T03:32:57;100885.56;;;8.45;63.52
39405;BME280;25121;51.090;17.038;2023-04-09T04:14:45;100916.97;;;8.62;64.75
39405;BME280;25121;51.090;17.038;2023-04-09T04:16:18;100895.25;;;8.56;64.71
39405;BME280;25121;51.090;17.038;2023-04-09T04:17:44;100908.38;;;8.59;64.77
39405;BME280;25121;51.090;17.038;2023-04-09T04:19:29;100907.81;;;8.65;64.71
39405;BME280;25121;51.090;17.038;2023-04-09T04:20:54;100927.00;;;8.70;65.13
39405;BME280;25121;51.090;17.038;2023-04-09T04:22:28;100925.00;;;8.72;65.13
39405;BME280;25121;51.090;17.038;2023-04-09T04:23:54;100913.59;;;8.70;65.13
39405;BME280;25121;51.090;17.038;2023-04-09T04:25:22;100914.00;;;8.75;65.02
39405;BME280;25121;51.090;17.038;2023-04-09T04:26:49;100908.38;;;8.69;64.84
39405;BME280;25121;51.090;17.038;2023-04-09T04:28:14;100918.09;;;8.79;64.94
39405;BME280;25121;51.090;17.038;2023-04-09T04:29:36;100907.94;;;8.73;65.04
39405;BME280;25121;51.090;17.038;2023-04-09T04:31:14;100898.06;;;8.74;65.10
39405;BME280;25121;51.090;17.038;2023-04-09T04:32:37;100924.28;;;8.80;65.10
39405;BME280;25121;51.090;17.038;2023-04-09T04:34:02;100917.94;;;8.81;65.20
39405;BME280;25121;51.090;17.038;2023-04-09T04:35:24;100929.06;;;8.86;65.23
39405;BME280;25121;51.090;17.038;2023-04-09T04:36:53;100916.09;;;8.81;65.38
39405;BME280;25121;51.090;17.038;2023-04-09T04:38:26;100935.00;;;8.90;65.12
39405;BME280;25121;51.090;17.038;2023-04-09T04:39:48;100926.25;;;8.88;65.16
39405;BME280;25121;51.090;17.038;2023-04-09T04:41:21;100925.84;;;8.92;65.33
39405;BME280;25121;51.090;17.038;2023-04-09T04:42:50;100907.63;;;8.86;65.38
39405;BME280;25121;51.090;17.038;2023-04-09T04:44:15;100913.69;;;8.88;65.43
39405;BME280;25121;51.090;17.038;2023-04-09T04:45:39;100912.44;;;8.92;65.38
39405;BME280;25121;51.090;17.038;2023-04-09T04:47:04;100916.78;;;8.93;65.44
39405;BME280;25121;51.090;17.038;2023-04-09T04:48:28;100914.09;;;8.93;65.75
39405;BME280;25121;51.090;17.038;2023-04-09T04:49:52;100928.63;;;9.00;65.85
39405;BME280;25121;51.090;17.038;2023-04-09T04:51:14;100913.69;;;8.98;65.98
39405;BME280;25121;51.090;17.038;2023-04-09T04:52:59;100926.47;;;9.04;65.94
39405;BME280;25121;51.090;17.038;2023-04-09T04:54:27;100912.00;;;8.97;65.98
39405;BME280;25121;51.090;17.038;2023-04-09T04:56:12;100918.19;;;8.97;66.00
39405;BME280;25121;51.090;17.038;2023-04-09T04:57:49;100912.66;;;8.99;66.06
39405;BME280;25121;51.090;17.038;2023-04-09T04:59:17;100918.44;;;9.04;66.10
39405;BME280;25121;51.090;17.038;2023-04-09T05:00:51;100919.72;;;9.10;66.02
39405;BME280;25121;51.090;17.038;2023-04-09T05:02:16;100920.84;;;9.07;65.87
39405;BME280;25121;51.090;17.038;2023-04-09T05:04:01;100926.06;;;9.09;65.94
39405;BME280;25121;51.090;17.038;2023-04-09T05:05:26;100932.81;;;9.13;65.97
39405;BME280;25121;51.090;17.038;2023-04-09T05:06:50;100927.47;;;9.13;66.06
39405;BME280;25121;51.090;17.038;2023-04-09T05:08:17;100927.47;;;9.13;66.20
39405;BME280;25121;51.090;17.038;2023-04-09T05:09:42;100931.81;;;9.14;66.40
39405;BME280;25121;51.090;17.038;2023-04-09T05:11:05;100932.69;;;9.14;66.24
39405;BME280;25121;51.090;17.038;2023-04-09T05:12:31;100925.50;;;9.15;66.44
39405;BME280;25121;51.090;17.038;2023-04-09T05:14:05;100926.03;;;9.18;66.37
39405;BME280;25121;51.090;17.038;2023-04-09T05:15:27;100925.91;;;9.20;66.35
39405;BME280;25121;51.090;17.038;2023-04-09T05:16:48;100931.97;;;9.22;66.04
39405;BME280;25121;51.090;17.038;2023-04-09T05:18:16;100926.19;;;9.17;65.94
39405;BME280;25121;51.090;17.038;2023-04-09T05:19:39;100932.81;;;9.22;66.12
39405;BME280;25121;51.090;17.038;2023-04-09T05:21:09;100938.88;;;9.24;66.11
39405;BME280;25121;51.090;17.038;2023-04-09T05:22:34;100929.53;;;9.28;66.09
39405;BME280;25121;51.090;17.038;2023-04-09T05:24:04;100935.06;;;9.27;66.24
39405;BME280;25121;51.090;17.038;2023-04-09T05:25:27;100929.53;;;9.28;65.90
39405;BME280;25121;51.090;17.038;2023-04-09T05:26:53;100932.06;;;9.30;66.02
39405;BME280;25121;51.090;17.038;2023-04-09T05:28:16;100924.16;;;9.28;66.15
39405;BME280;25121;51.090;17.038;2023-04-09T05:29:42;100939.25;;;9.39;66.18
39405;BME280;25121;51.090;17.038;2023-04-09T05:31:05;100925.44;;;9.34;66.26
39405;BME280;25121;51.090;17.038;2023-04-09T05:32:39;100926.97;;;9.37;66.22
39405;BME280;25121;51.090;17.038;2023-04-09T05:34:02;100939.34;;;9.47;66.30
39405;BME280;25121;51.090;17.038;2023-04-09T05:35:32;100940.75;;;9.52;66.24
39405;BME280;25121;51.090;17.038;2023-04-09T05:36:55;100942.44;;;9.53;66.40
39405;BME280;25121;51.090;17.038;2023-04-09T05:38:21;100929.31;;;9.49;66.57
39405;BME280;25121;51.090;17.038;2023-04-09T05:42:58;100951.72;;;9.58;66.43
39405;BME280;25121;51.090;17.038;2023-04-09T05:44:44;100942.97;;;9.56;66.22
39405;BME280;25121;51.090;17.038;2023-04-09T05:46:11;100942.97;;;9.56;65.94
39405;BME280;25121;51.090;17.038;2023-04-09T05:47:34;100941.28;;;9.55;66.12
39405;BME280;25121;51.090;17.038;2023-04-09T05:49:11;100942.44;;;9.53;66.30
39405;BME280;25121;51.090;17.038;2023-04-09T05:50:38;100958.78;;;9.59;66.46
39405;BME280;25121;51.090;17.038;2023-04-09T05:52:14;100942.97;;;9.56;66.58
39405;BME280;25121;51.090;17.038;2023-04-09T05:53:37;100956.25;;;9.58;66.67
39405;BME280;25121;51.090;17.038;2023-04-09T05:54:59;100953.25;;;9.61;66.95
39405;BME280;25121;51.090;17.038;2023-04-09T05:56:34;100959.47;;;9.61;67.17
39405;BME280;25121;51.090;17.038;2023-04-09T05:58:07;100951.72;;;9.58;67.55
39405;BME280;25121;51.090;17.038;2023-04-09T05:59:32;100950.19;;;9.56;67.51
39405;BME280;25121;51.090;17.038;2023-04-09T06:01:08;100950.19;;;9.56;67.68
39405;BME280;25121;51.090;17.038;2023-04-09T06:02:31;100944.81;;;9.56;67.83
39405;BME280;25121;51.090;17.038;2023-04-09T06:03:56;100954.81;;;9.63;67.99
39405;BME280;25121;51.090;17.038;2023-04-09T06:05:23;100943.66;;;9.58;68.21
39405;BME280;25121;51.090;17.038;2023-04-09T06:06:50;100950.44;;;9.62;68.66
39405;BME280;25121;51.090;17.038;2023-04-09T06:08:27;100960.16;;;9.63;68.70
39405;BME280;25121;51.090;17.038;2023-04-09T06:12:27;100950.19;;;9.56;68.59
39405;BME280;25121;51.090;17.038;2023-04-09T06:18:37;100954.31;;;9.50;68.64
39405;BME280;25121;51.090;17.038;2023-04-09T06:20:04;100956.16;;;9.49;68.98
39405;BME280;25121;51.090;17.038;2023-04-09T06:21:37;100936.56;;;9.39;69.03
39405;BME280;25121;51.090;17.038;2023-04-09T06:25:32;100931.47;;;9.36;69.06
39405;BME280;25121;51.090;17.038;2023-04-09T06:27:11;100953.06;;;9.44;68.89
39405;BME280;25121;51.090;17.038;2023-04-09T06:28:41;100944.84;;;9.46;69.30
39405;BME280;25121;51.090;17.038;2023-04-09T06:30:45;100928.66;;;9.38;69.52
39405;BME280;25121;51.090;17.038;2023-04-09T06:32:25;100937.09;;;9.43;69.30
39405;BME280;25121;51.090;17.038;2023-04-09T06:36:23;100937.41;;;9.40;69.20
39405;BME280;25121;51.090;17.038;2023-04-09T06:37:46;100937.09;;;9.43;69.25
39405;BME280;25121;51.090;17.038;2023-04-09T06:39:11;100935.97;;;9.45;69.46
39405;BME280;25121;51.090;17.038;2023-04-09T06:40:33;100930.31;;;9.39;69.89
39405;BME280;25121;51.090;17.038;2023-04-09T06:42:02;100940.63;;;9.43;70.12
39405;BME280;25121;51.090;17.038;2023-04-09T06:43:41;100944.44;;;9.41;70.24
39405;BME280;25121;51.090;17.038;2023-04-09T06:45:04;100948.97;;;9.40;70.34
39405;BME280;25121;51.090;17.038;2023-04-09T06:46:28;100938.84;;;9.34;70.49
39405;BME280;25121;51.090;17.038;2023-04-09T06:48:16;100963.13;;;9.33;70.41
39405;BME280;25121;51.090;17.038;2023-04-09T06:49:48;100965.38;;;9.27;70.15
39405;BME280;25121;51.090;17.038;2023-04-09T06:51:16;100959.19;;;9.27;70.35
39405;BME280;25121;51.090;17.038;2023-04-09T06:52:40;100951.28;;;9.25;70.46
39405;BME280;25121;51.090;17.038;2023-04-09T06:54:03;100957.19;;;9.29;70.62
39405;BME280;25121;51.090;17.038;2023-04-09T06:55:27;100959.19;;;9.27;70.72
39405;BME280;25121;51.090;17.038;2023-04-09T06:57:51;100956.66;;;9.16;70.48
39405;BME280;25121;51.090;17.038;2023-04-09T06:59:19;100959.22;;;9.17;70.96
39405;BME280;25121;51.090;17.038;2023-04-09T07:00:47;100943.84;;;9.10;70.80
39405;BME280;25121;51.090;17.038;2023-04-09T07:02:09;100948.50;;;9.08;70.69
39405;BME280;25121;51.090;17.038;2023-04-09T07:03:35;100939.88;;;9.04;70.57
39405;BME280;25121;51.090;17.038;2023-04-09T07:05:40;100941.47;;;8.97;70.26
39405;BME280;25121;51.090;17.038;2023-04-09T07:07:02;100964.03;;;9.04;70.17
39405;BME280;25121;51.090;17.038;2023-04-09T07:08:35;100955.84;;;8.96;70.45
39405;BME280;25121;51.090;17.038;2023-04-09T07:09:58;100954.44;;;8.92;70.45
39405;BME280;25121;51.090;17.038;2023-04-09T07:11:21;100972.53;;;8.99;70.84
39405;BME280;25121;51.090;17.038;2023-04-09T07:12:44;100968.97;;;8.99;71.11
39405;BME280;25121;51.090;17.038;2023-04-09T07:14:06;100964.91;;;8.95;71.37
39405;BME280;25121;51.090;17.038;2023-04-09T07:15:31;100967.00;;;9.01;71.65
39405;BME280;25121;51.090;17.038;2023-04-09T07:17:08;100964.75;;;8.96;71.69
39405;BME280;25121;51.090;17.038;2023-04-09T07:18:33;100971.94;;;9.05;71.55
39405;BME280;25121;51.090;17.038;2023-04-09T07:19:58;100968.97;;;9.09;71.74
39405;BME280;25121;51.090;17.038;2023-04-09T07:21:21;100976.28;;;9.06;71.58
39405;BME280;25121;51.090;17.038;2023-04-09T07:22:43;100973.06;;;9.13;71.71
39405;BME280;25121;51.090;17.038;2023-04-09T07:24:07;100978.13;;;9.16;71.56
39405;BME280;25121;51.090;17.038;2023-04-09T07:25:32;100973.75;;;9.15;71.56
39405;BME280;25121;51.090;17.038;2023-04-09T07:26:54;100977.72;;;9.11;71.51
39405;BME280;25121;51.090;17.038;2023-04-09T07:28:17;100971.06;;;9.15;71.88
39405;BME280;25121;51.090;17.038;2023-04-09T07:29:43;100971.22;;;9.13;71.69
39405;BME280;25121;51.090;17.038;2023-04-09T07:31:10;100977.28;;;9.15;71.56
39405;BME280;25121;51.090;17.038;2023-04-09T07:32:36;100973.59;;;9.16;71.53
39405;BME280;25121;51.090;17.038;2023-04-09T07:34:03;100967.69;;;9.13;71.52
39405;BME280;25121;51.090;17.038;2023-04-09T07:35:26;100977.69;;;9.20;71.37
39405;BME280;25121;51.090;17.038;2023-04-09T07:36:48;100981.91;;;9.23;71.14
39405;BME280;25121;51.090;17.038;2023-04-09T07:40:40;100992.22;;;9.27;70.88
39405;BME280;25121;51.090;17.038;2023-04-09T07:56:07;100967.88;;;9.39;70.08
39405;BME280;25121;51.090;17.038;2023-04-09T07:57:30;100957.63;;;9.34;70.23
39405;BME280;25121;51.090;17.038;2023-04-09T07:59:00;100976.06;;;9.47;70.46
39405;BME280;25121;51.090;17.038;2023-04-09T08:00:24;100959.41;;;9.43;70.33
39405;BME280;25121;51.090;17.038;2023-04-09T08:02:25;100977.84;;;9.56;69.84
39405;BME280;25121;51.090;17.038;2023-04-09T08:04:11;100968.97;;;9.56;69.77
39405;BME280;25121;51.090;17.038;2023-04-09T08:05:34;100975.56;;;9.61;69.76
39405;BME280;25121;51.090;17.038;2023-04-09T08:07:14;100979.34;;;9.68;69.70
39405;BME280;25121;51.090;17.038;2023-04-09T08:09:36;100978.06;;;9.73;69.52
39405;BME280;25121;51.090;17.038;2023-04-09T08:15:11;100987.13;;;9.72;69.57
39405;BME280;25121;51.090;17.038;2023-04-09T08:19:40;100994.72;;;9.76;69.35
39405;BME280;25121;51.090;17.038;2023-04-09T08:46:09;100975.19;;;10.11;67.72
39405;BME280;25121;51.090;17.038;2023-04-09T08:47:42;100987.94;;;10.27;67.70
39405;BME280;25121;51.090;17.038;2023-04-09T08:49:32;100973.69;;;10.27;67.49
39405;BME280;25121;51.090;17.038;2023-04-09T08:51:02;100974.47;;;10.37;67.50
39405;BME280;25121;51.090;17.038;2023-04-09T08:52:45;100978.41;;;10.43;67.54
39405;BME280;25121;51.090;17.038;2023-04-09T08:54:14;100973.41;;;10.48;67.25
39405;BME280;25121;51.090;17.038;2023-04-09T08:55:39;100979.53;;;10.58;67.19
39405;BME280;25121;51.090;17.038;2023-04-09T08:57:09;100978.88;;;10.56;66.99
39405;BME280;25121;51.090;17.038;2023-04-09T08:58:56;100985.31;;;10.63;67.06
39405;BME280;25121;51.090;17.038;2023-04-09T09:00:19;100987.38;;;10.69;66.92
39405;BME280;25121;51.090;17.038;2023-04-09T09:01:45;100977.34;;;10.71;66.51
39405;BME280;25121;51.090;17.038;2023-04-09T09:12:50;100981.97;;;11.05;65.33
39405;BME280;25121;51.090;17.038;2023-04-09T09:14:18;100982.50;;;11.09;65.82
39405;BME280;25121;51.090;17.038;2023-04-09T09:15:41;100986.88;;;11.10;65.93
39405;BME280;25121;51.090;17.038;2023-04-09T09:17:04;100989.41;;;11.11;65.56
39405;BME280;25121;51.090;17.038;2023-04-09T09:20:44;100988.03;;;11.07;65.73
39405;BME280;25121;51.090;17.038;2023-04-09T09:22:06;100986.69;;;11.03;65.70
39405;BME280;25121;51.090;17.038;2023-04-09T09:26:15;100991.50;;;10.99;65.67
39405;BME280;25121;51.090;17.038;2023-04-09T09:27:44;100985.22;;;10.91;65.54
39405;BME280;25121;51.090;17.038;2023-04-09T09:29:18;100989.59;;;10.92;65.41
39405;BME280;25121;51.090;17.038;2023-04-09T09:30:41;100991.13;;;10.94;65.62
39405;BME280;25121;51.090;17.038;2023-04-09T09:32:12;100999.19;;;10.94;65.59
39405;BME280;25121;51.090;17.038;2023-04-09T09:33:35;100991.59;;;10.90;65.69
39405;BME280;25121;51.090;17.038;2023-04-09T09:35:00;100996.00;;;10.91;65.63
39405;BME280;25121;51.090;17.038;2023-04-09T09:36:56;100988.00;;;10.81;66.11
39405;BME280;25121;51.090;17.038;2023-04-09T09:38:55;101000.28;;;10.84;66.28
39405;BME280;25121;51.090;17.038;2023-04-09T09:40:40;100993.06;;;10.84;66.48
39405;BME280;25121;51.090;17.038;2023-04-09T09:42:06;100996.44;;;10.86;66.14
39405;BME280;25121;51.090;17.038;2023-04-09T09:43:39;100996.59;;;10.85;66.04
39405;BME280;25121;51.090;17.038;2023-04-09T09:45:16;101003.69;;;10.86;66.04
39405;BME280;25121;51.090;17.038;2023-04-09T09:46:46;100990.38;;;10.84;66.18
39405;BME280;25121;51.090;17.038;2023-04-09T09:48:14;100995.91;;;10.83;66.35
39405;BME280;25121;51.090;17.038;2023-04-09T09:49:38;100984.94;;;10.76;66.15
39405;BME280;25121;51.090;17.038;2023-04-09T09:55:57;100980.41;;;10.76;65.85
39405;BME280;25121;51.090;17.038;2023-04-09T09:57:25;100982.63;;;10.81;65.34
39405;BME280;25121;51.090;17.038;2023-04-09T09:59:05;100981.31;;;10.85;65.34
39405;BME280;25121;51.090;17.038;2023-04-09T10:00:31;100975.25;;;10.83;65.09
39405;BME280;25121;51.090;17.038;2023-04-09T10:01:57;100977.44;;;10.88;64.96
39405;BME280;25121;51.090;17.038;2023-04-09T10:03:30;100963.94;;;10.80;65.08
39405;BME280;25121;51.090;17.038;2023-04-09T10:06:17;100977.84;;;10.75;65.25
39405;BME280;25121;51.090;17.038;2023-04-09T10:07:42;100973.94;;;10.69;65.42
39405;BME280;25121;51.090;17.038;2023-04-09T10:35:24;100967.97;;;10.12;67.52
39405;BME280;25121;51.090;17.038;2023-04-09T10:37:13;100980.56;;;10.11;68.14
39405;BME280;25121;51.090;17.038;2023-04-09T10:38:59;100971.25;;;10.06;68.55
39405;BME280;25121;51.090;17.038;2023-04-09T10:42:40;100965.94;;;9.96;69.33
39405;BME280;25121;51.090;17.038;2023-04-09T10:44:20;100964.13;;;9.97;69.87
39405;BME280;25121;51.090;17.038;2023-04-09T10:45:48;100970.41;;;10.05;70.19
39405;BME280;25121;51.090;17.038;2023-04-09T10:47:36;100956.59;;;10.00;70.81
39405;BME280;25121;51.090;17.038;2023-04-09T10:49:09;100963.19;;;10.06;71.00
39405;BME280;25121;51.090;17.038;2023-04-09T10:50:37;100965.28;;;10.12;70.99
39405;BME280;25121;51.090;17.038;2023-04-09T10:52:10;100975.28;;;10.20;71.08
39405;BME280;25121;51.090;17.038;2023-04-09T10:54:41;100968.63;;;10.24;70.69
39405;BME280;25121;51.090;17.038;2023-04-09T10:56:14;100967.75;;;10.23;70.87
39405;BME280;25121;51.090;17.038;2023-04-09T11:00:50;100971.28;;;10.33;70.47
39405;BME280;25121;51.090;17.038;2023-04-09T11:11:58;100964.63;;;10.28;71.09
39405;BME280;25121;51.090;17.038;2023-04-09T11:23:41;100974.25;;;10.30;71.81
39405;BME280;25121;51.090;17.038;2023-04-09T12:15:36;100966.03;;;10.68;71.62
39405;BME280;25121;51.090;17.038;2023-04-09T12:45:37;100964.28;;;11.20;70.98
39405;BME280;25121;51.090;17.038;2023-04-09T13:31:15;100964.09;;;10.96;71.89
39405;BME280;25121;51.090;17.038;2023-04-09T13:33:08;100973.69;;;10.98;71.79
39405;BME280;25121;51.090;17.038;2023-04-09T13:44:22;100963.41;;;10.94;71.63
39405;BME280;25121;51.090;17.038;2023-04-09T13:46:30;100963.41;;;10.94;71.53
39405;BME280;25121;51.090;17.038;2023-04-09T13:51:30;100967.56;;;10.88;71.86
39405;BME280;25121;51.090;17.038;2023-04-09T14:07:25;100968.72;;;10.86;72.21
39405;BME280;25121;51.090;17.038;2023-04-09T14:24:39;100960.66;;;10.68;72.42
39405;BME280;25121;51.090;17.038;2023-04-09T14:26:05;100965.25;;;10.75;72.61
39405;BME280;25121;51.090;17.038;2023-04-09T14:27:27;100950.44;;;10.71;72.43
39405;BME280;25121;51.090;17.038;2023-04-09T14:28:50;100960.19;;;10.72;73.01
39405;BME280;25121;51.090;17.038;2023-04-09T14:41:12;100961.19;;;10.71;73.31
39405;BME280;25121;51.090;17.038;2023-04-09T14:43:04;100960.88;;;10.74;73.34
39405;BME280;25121;51.090;17.038;2023-04-09T14:44:30;100956.81;;;10.70;73.18
39405;BME280;25121;51.090;17.038;2023-04-09T14:49:18;100949.63;;;10.71;73.19
39405;BME280;25121;51.090;17.038;2023-04-09T15:19:18;100930.00;;;10.25;74.54
39405;BME280;25121;51.090;17.038;2023-04-09T15:20:44;100946.41;;;10.31;74.73
39405;BME280;25121;51.090;17.038;2023-04-09T15:22:07;100935.09;;;10.28;74.83
39405;BME280;25121;51.090;17.038;2023-04-09T15:23:29;100947.38;;;10.30;75.05
39405;BME280;25121;51.090;17.038;2023-04-09T15:24:55;100939.59;;;10.27;74.77
39405;BME280;25121;51.090;17.038;2023-04-09T15:27:14;100948.38;;;10.29;75.01
39405;BME280;25121;51.090;17.038;2023-04-09T15:28:36;100943.16;;;10.28;75.22
39405;BME280;25121;51.090;17.038;2023-04-09T15:29:59;100948.06;;;10.32;75.39
39405;BME280;25121;51.090;17.038;2023-04-09T15:31:21;100944.69;;;10.30;75.52
39405;BME280;25121;51.090;17.038;2023-04-09T15:32:49;100948.78;;;10.34;75.55
39405;BME280;25121;51.090;17.038;2023-04-09T15:34:53;100950.63;;;10.34;75.72
39405;BME280;25121;51.090;17.038;2023-04-09T15:36:15;100939.19;;;10.32;75.67
39405;BME280;25121;51.090;17.038;2023-04-09T15:38:33;100934.63;;;10.32;75.79
39405;BME280;25121;51.090;17.038;2023-04-09T15:40:18;100950.00;;;10.40;75.44
39405;BME280;25121;51.090;17.038;2023-04-09T15:41:41;100942.75;;;10.41;75.72
39405;BME280;25121;51.090;17.038;2023-04-09T15:43:03;100941.22;;;10.38;75.74
39405;BME280;25121;51.090;17.038;2023-04-09T15:44:25;100948.00;;;10.42;75.92
39405;BME280;25121;51.090;17.038;2023-04-09T15:45:48;100940.63;;;10.44;75.94
39405;BME280;25121;51.090;17.038;2023-04-09T15:47:11;100942.16;;;10.47;75.82
39405;BME280;25121;51.090;17.038;2023-04-09T15:48:33;100943.00;;;10.47;75.72
39405;BME280;25121;51.090;17.038;2023-04-09T15:50:00;100933.09;;;10.48;75.72
39405;BME280;25121;51.090;17.038;2023-04-09T15:51:28;100929.72;;;10.46;75.87
39405;BME280;25121;51.090;17.038;2023-04-09T15:52:50;100931.28;;;10.48;75.71
39405;BME280;25121;51.090;17.038;2023-04-09T15:54:16;100931.41;;;10.47;75.65
39405;BME280;25121;51.090;17.038;2023-04-09T15:55:41;100936.84;;;10.55;75.71
39405;BME280;25121;51.090;17.038;2023-04-09T15:57:04;100934.16;;;10.55;75.61
39405;BME280;25121;51.090;17.038;2023-04-09T15:58:25;100935.00;;;10.55;75.65
39405;BME280;25121;51.090;17.038;2023-04-09T15:59:48;100946.31;;;10.59;75.66
39405;BME280;25121;51.090;17.038;2023-04-09T16:01:38;100934.72;;;10.59;75.91
39405;BME280;25121;51.090;17.038;2023-04-09T16:03:15;100942.78;;;10.59;75.59
39405;BME280;25121;51.090;17.038;2023-04-09T16:04:40;100935.00;;;10.55;75.68
39405;BME280;25121;51.090;17.038;2023-04-09T16:06:05;100938.38;;;10.57;75.72
39405;BME280;25121;51.090;17.038;2023-04-09T16:07:29;100934.88;;;10.57;75.75
39405;BME280;25121;51.090;17.038;2023-04-09T16:09:01;100923.22;;;10.48;75.64
39405;BME280;25121;51.090;17.038;2023-04-09T16:10:51;100928.09;;;10.53;75.54
39405;BME280;25121;51.090;17.038;2023-04-09T16:12:15;100924.56;;;10.52;75.38
39405;BME280;25121;51.090;17.038;2023-04-09T16:13:39;100931.94;;;10.50;75.48
39405;BME280;25121;51.090;17.038;2023-04-09T16:15:02;100923.34;;;10.47;75.73
39405;BME280;25121;51.090;17.038;2023-04-09T16:16:24;100934.63;;;10.50;75.75
39405;BME280;25121;51.090;17.038;2023-04-09T16:17:49;100929.72;;;10.46;75.72
39405;BME280;25121;51.090;17.038;2023-04-09T16:19:15;100922.13;;;10.41;75.93
39405;BME280;25121;51.090;17.038;2023-04-09T16:20:37;100943.69;;;10.49;75.85
39405;BME280;25121;51.090;17.038;2023-04-09T16:22:04;100943.84;;;10.48;75.89
39405;BME280;25121;51.090;17.038;2023-04-09T16:23:27;100941.16;;;10.48;75.72
39405;BME280;25121;51.090;17.038;2023-04-09T16:24:53;100932.72;;;10.43;75.87
39405;BME280;25121;51.090;17.038;2023-04-09T16:26:52;100928.66;;;10.39;75.83
39405;BME280;25121;51.090;17.038;2023-04-09T16:28:18;100930.66;;;10.37;75.71
39405;BME280;25121;51.090;17.038;2023-04-09T16:29:41;100934.88;;;10.39;75.84
39405;BME280;25121;51.090;17.038;2023-04-09T16:31:18;100927.28;;;10.34;75.96
39405;BME280;25121;51.090;17.038;2023-04-09T16:32:43;100931.50;;;10.37;75.79
39405;BME280;25121;51.090;17.038;2023-04-09T16:35:00;100926.44;;;10.34;76.02
39405;BME280;25121;51.090;17.038;2023-04-09T16:37:33;100929.00;;;10.26;75.79
39405;BME280;25121;51.090;17.038;2023-04-09T16:39:00;100926.16;;;10.27;76.06
39405;BME280;25121;51.090;17.038;2023-04-09T16:48:03;100928.16;;;10.07;76.00
39405;BME280;25121;51.090;17.038;2023-04-09T17:41:57;100962.22;;;9.79;77.07
39405;BME280;25121;51.090;17.038;2023-04-09T17:50:45;100974.84;;;9.69;77.18
39405;BME280;25121;51.090;17.038;2023-04-09T17:52:23;100961.31;;;9.61;77.34
39405;BME280;25121;51.090;17.038;2023-04-09T17:54:07;100968.78;;;9.67;77.19
39405;BME280;25121;51.090;17.038;2023-04-09T17:55:45;100963.72;;;9.64;77.54
39405;BME280;25121;51.090;17.038;2023-04-09T17:57:14;100969.63;;;9.67;77.58
39405;BME280;25121;51.090;17.038;2023-04-09T17:58:37;100962.00;;;9.63;77.45
39405;BME280;25121;51.090;17.038;2023-04-09T18:00:02;100969.31;;;9.70;77.67
39405;BME280;25121;51.090;17.038;2023-04-09T18:01:30;100965.94;;;9.68;77.81
39405;BME280;25121;51.090;17.038;2023-04-09T18:02:55;100960.88;;;9.65;77.75
39405;BME280;25121;51.090;17.038;2023-04-09T18:07:12;100973.72;;;9.72;77.42
39405;BME280;25121;51.090;17.038;2023-04-09T18:08:45;100975.25;;;9.74;77.37